sensor_id;sensor_type;location;lat;lon;timestamp;temperature;humidity
10441;DHT22;5268;49.346;9.522;2023-04-10T03:08:22;4.30;99.90
10441;DHT22;5268;49.346;9.522;2023-04-10T03:13:23;4.30;99.90
10441;DHT22;5268;49.346;9.522;2023-04-10T03:18:25;4.30;99.90
10441;DHT22;5268;49.346;9.522;2023-04-10T03:23:29;4.20;99.90
10441;DHT22;5268;49.346;9.522;2023-04-10T03:28:31;4.20;99.90
10441;DHT22;5268;49.346;9.522;2023-04-10T03:33:35;4.10;99.90
10441;DHT22;5268;49.346;9.522;2023-04-10T03:38:38;4.10;99.90
10441;DHT22;5268;49.346;9.522;2023-04-10T03:43:40;4.00;99.90
10441;DHT22;5268;49.346;9.522;2023-04-10T03:48:42;3.90;99.90
10441;DHT22;5268;49.346;9.522;2023-04-10T03:53:45;3.90;99.90
10441;DHT22;5268;49.346;9.522;2023-04-10T03:58:47;3.90;99.90
10441;DHT22;5268;49.346;9.522;2023-04-10T04:03:49;3.90;99.90
10441;DHT22;5268;49.346;9.522;2023-04-10T04:08:52;3.80;99.90
10441;DHT22;5268;49.346;9.522;2023-04-10T04:13:54;3.80;99.90
10441;DHT22;5268;49.346;9.522;2023-04-10T04:18:57;3.70;99.90
10441;DHT22;5268;49.346;9.522;2023-04-10T04:24:00;3.70;99.90
10441;DHT22;5268;49.346;9.522;2023-04-10T04:29:02;3.80;99.90
10441;DHT22;5268;49.346;9.522;2023-04-10T04:34:04;3.70;99.90
10441;DHT22;5268;49.346;9.522;2023-04-10T04:39:07;3.70;99.90
10441;DHT22;5268;49.346;9.522;2023-04-10T04:44:09;3.70;99.90
10441;DHT22;5268;49.346;9.522;2023-04-10T04:49:11;3.60;99.90
10441;DHT22;5268;49.346;9.522;2023-04-10T04:54:15;3.70;99.90
10441;DHT22;5268;49.346;9.522;2023-04-10T04:59:16;3.70;99.90
10441;DHT22;5268;49.346;9.522;2023-04-10T05:04:18;3.60;99.90
10441;DHT22;5268;49.346;9.522;2023-04-10T05:09:22;3.70;99.90
10441;DHT22;5268;49.346;9.522;2023-04-10T05:14:24;3.70;99.90
10441;DHT22;5268;49.346;9.522;2023-04-10T05:19:26;3.70;99.90
10441;DHT22;5268;49.346;9.522;2023-04-10T05:24:29;3.80;99.90
10441;DHT22;5268;49.346;9.522;2023-04-10T05:29:31;3.80;99.90
10441;DHT22;5268;49.346;9.522;2023-04-10T05:34:34;3.80;99.90
10441;DHT22;5268;49.346;9.522;2023-04-10T05:39:37;3.90;99.90
10441;DHT22;5268;49.346;9.522;2023-04-10T05:44:39;4.00;99.90
10441;DHT22;5268;49.346;9.522;2023-04-10T05:49:41;4.20;99.90
10441;DHT22;5268;49.346;9.522;2023-04-10T05:54:44;4.20;99.90
10441;DHT22;5268;49.346;9.522;2023-04-10T05:59:46;4.20;99.90
10441;DHT22;5268;49.346;9.522;2023-04-10T06:04:48;4.20;99.90
10441;DHT22;5268;49.346;9.522;2023-04-10T06:09:52;4.20;99.90
10441;DHT22;5268;49.346;9.522;2023-04-10T06:14:54;4.30;99.90
10441;DHT22;5268;49.346;9.522;2023-04-10T06:19:56;4.30;99.90
10441;DHT22;5268;49.346;9.522;2023-04-10T06:25:01;4.30;99.90
10441;DHT22;5268;49.346;9.522;2023-04-10T06:30:06;4.50;99.90
10441;DHT22;5268;49.346;9.522;2023-04-10T06:35:08;4.90;99.90
10441;DHT22;5268;49.346;9.522;2023-04-10T06:40:13;5.40;99.90
10441;DHT22;5268;49.346;9.522;2023-04-10T06:45:15;6.00;99.90
10441;DHT22;5268;49.346;9.522;2023-04-10T06:50:17;6.40;99.90
10441;DHT22;5268;49.346;9.522;2023-04-10T06:55:21;6.80;99.90
10441;DHT22;5268;49.346;9.522;2023-04-10T07:00:23;7.00;99.90
10441;DHT22;5268;49.346;9.522;2023-04-10T07:05:25;7.20;99.90
10441;DHT22;5268;49.346;9.522;2023-04-10T07:10:29;7.40;99.90
10441;DHT22;5268;49.346;9.522;2023-04-10T07:15:30;7.60;99.90
10441;DHT22;5268;49.346;9.522;2023-04-10T07:20:32;7.80;99.90
10441;DHT22;5268;49.346;9.522;2023-04-10T07:25:36;8.10;99.90
10441;DHT22;5268;49.346;9.522;2023-04-10T07:30:38;8.50;99.90
10441;DHT22;5268;49.346;9.522;2023-04-10T07:35:40;8.90;99.90
10441;DHT22;5268;49.346;9.522;2023-04-10T07:40:43;9.50;99.90
10441;DHT22;5268;49.346;9.522;2023-04-10T07:45:45;10.10;99.90
10441;DHT22;5268;49.346;9.522;2023-04-10T07:50:47;10.70;99.90
10441;DHT22;5268;49.346;9.522;2023-04-10T07:55:51;10.90;99.90
10441;DHT22;5268;49.346;9.522;2023-04-10T08:00:53;10.90;99.90
10441;DHT22;5268;49.346;9.522;2023-04-10T08:05:55;11.10;99.90
10441;DHT22;5268;49.346;9.522;2023-04-10T08:10:58;11.30;99.90
10441;DHT22;5268;49.346;9.522;2023-04-10T08:16:01;11.70;99.90
10441;DHT22;5268;49.346;9.522;2023-04-10T08:21:03;12.10;99.90
10441;DHT22;5268;49.346;9.522;2023-04-10T08:26:07;12.20;99.90
10441;DHT22;5268;49.346;9.522;2023-04-10T08:31:09;12.30;99.90
10441;DHT22;5268;49.346;9.522;2023-04-10T08:36:12;12.70;99.90
10441;DHT22;5268;49.346;9.522;2023-04-10T08:41:17;12.80;99.90
10441;DHT22;5268;49.346;9.522;2023-04-10T08:46:22;13.10;99.90
10441;DHT22;5268;49.346;9.522;2023-04-10T08:51:27;13.50;99.90
10441;DHT22;5268;49.346;9.522;2023-04-10T08:56:34;13.60;99.90
10441;DHT22;5268;49.346;9.522;2023-04-10T09:01:37;14.00;99.90
10441;DHT22;5268;49.346;9.522;2023-04-10T09:06:40;14.00;99.90
10441;DHT22;5268;49.346;9.522;2023-04-10T09:12:01;14.00;99.90
10441;DHT22;5268;49.346;9.522;2023-04-10T09:17:14;14.30;99.90
10441;DHT22;5268;49.346;9.522;2023-04-10T09:22:16;14.30;99.90
10441;DHT22;5268;49.346;9.522;2023-04-10T09:27:30;14.60;99.90
10441;DHT22;5268;49.346;9.522;2023-04-10T09:32:38;15.20;99.90
10441;DHT22;5268;49.346;9.522;2023-04-10T09:37:42;15.20;99.90
10441;DHT22;5268;49.346;9.522;2023-04-10T09:42:46;15.10;99.90
10441;DHT22;5268;49.346;9.522;2023-04-10T09:48:01;15.40;99.90
10441;DHT22;5268;49.346;9.522;2023-04-10T09:53:03;15.40;99.90
10441;DHT22;5268;49.346;9.522;2023-04-10T09:58:08;15.80;99.90
10441;DHT22;5268;49.346;9.522;2023-04-10T10:03:11;16.00;99.90
10441;DHT22;5268;49.346;9.522;2023-04-10T10:08:14;15.80;99.80
10441;DHT22;5268;49.346;9.522;2023-04-10T10:13:23;15.50;96.00
10441;DHT22;5268;49.346;9.522;2023-04-10T10:18:33;15.20;95.40
10441;DHT22;5268;49.346;9.522;2023-04-10T10:23:36;15.40;96.20
10441;DHT22;5268;49.346;9.522;2023-04-10T10:28:41;15.60;97.40
10441;DHT22;5268;49.346;9.522;2023-04-10T10:33:44;15.50;95.20
10441;DHT22;5268;49.346;9.522;2023-04-10T10:38:52;15.90;99.90
10441;DHT22;5268;49.346;9.522;2023-04-10T10:44:07;16.10;94.80
10441;DHT22;5268;49.346;9.522;2023-04-10T10:49:09;16.00;94.00
10441;DHT22;5268;49.346;9.522;2023-04-10T10:54:26;16.40;97.10
10441;DHT22;5268;49.346;9.522;2023-04-10T10:59:56;16.40;95.30
10441;DHT22;5268;49.346;9.522;2023-04-10T11:04:58;16.20;94.50
10441;DHT22;5268;49.346;9.522;2023-04-10T11:10:00;16.30;92.80
10441;DHT22;5268;49.346;9.522;2023-04-10T11:15:04;16.60;98.30
10441;DHT22;5268;49.346;9.522;2023-04-10T11:20:07;16.90;98.50
10441;DHT22;5268;49.346;9.522;2023-04-10T11:25:09;17.00;94.40
10441;DHT22;5268;49.346;9.522;2023-04-10T11:30:33;17.00;93.10
10441;DHT22;5268;49.346;9.522;2023-04-10T11:35:35;17.00;91.80
10441;DHT22;5268;49.346;9.522;2023-04-10T11:40:53;17.40;97.80
10441;DHT22;5268;49.346;9.522;2023-04-10T11:46:04;17.90;99.90
10441;DHT22;5268;49.346;9.522;2023-04-10T11:51:08;17.90;92.40
10441;DHT22;5268;49.346;9.522;2023-04-10T11:56:18;17.90;90.90
10441;DHT22;5268;49.346;9.522;2023-04-10T12:01:23;18.10;97.60
10441;DHT22;5268;49.346;9.522;2023-04-10T12:06:25;17.40;82.70
10441;DHT22;5268;49.346;9.522;2023-04-10T12:11:29;17.80;91.70
10441;DHT22;5268;49.346;9.522;2023-04-10T12:16:32;18.00;94.20
10441;DHT22;5268;49.346;9.522;2023-04-10T12:21:35;18.30;94.60
10441;DHT22;5268;49.346;9.522;2023-04-10T12:26:37;18.00;92.20
10441;DHT22;5268;49.346;9.522;2023-04-10T12:31:40;18.10;86.30
10441;DHT22;5268;49.346;9.522;2023-04-10T12:36:51;17.90;82.60
10441;DHT22;5268;49.346;9.522;2023-04-10T12:41:53;18.30;89.50
10441;DHT22;5268;49.346;9.522;2023-04-10T12:47:12;18.10;91.20
10441;DHT22;5268;49.346;9.522;2023-04-10T12:52:21;18.20;92.30
10441;DHT22;5268;49.346;9.522;2023-04-10T12:57:25;18.20;78.30
10441;DHT22;5268;49.346;9.522;2023-04-10T13:02:29;18.40;80.20
10441;DHT22;5268;49.346;9.522;2023-04-10T13:07:31;18.50;93.60
10441;DHT22;5268;49.346;9.522;2023-04-10T13:12:33;18.80;94.30
10441;DHT22;5268;49.346;9.522;2023-04-10T13:17:38;18.70;85.40
10441;DHT22;5268;49.346;9.522;2023-04-10T13:22:41;18.60;90.70
10441;DHT22;5268;49.346;9.522;2023-04-10T13:27:43;18.50;78.10
10441;DHT22;5268;49.346;9.522;2023-04-10T13:32:46;18.60;90.10
10441;DHT22;5268;49.346;9.522;2023-04-10T13:37:49;18.40;80.40
10441;DHT22;5268;49.346;9.522;2023-04-10T13:42:53;18.60;82.90
10441;DHT22;5268;49.346;9.522;2023-04-10T13:47:57;18.40;81.50
10441;DHT22;5268;49.346;9.522;2023-04-10T13:52:59;18.40;87.20
10441;DHT22;5268;49.346;9.522;2023-04-10T13:58:01;18.70;90.70
10441;DHT22;5268;49.346;9.522;2023-04-10T14:03:04;18.40;71.20
10441;DHT22;5268;49.346;9.522;2023-04-10T14:08:09;18.60;85.00
10441;DHT22;5268;49.346;9.522;2023-04-10T14:13:14;18.60;79.10
10441;DHT22;5268;49.346;9.522;2023-04-10T14:18:18;18.60;76.40
10441;DHT22;5268;49.346;9.522;2023-04-10T14:23:20;18.40;75.20
10441;DHT22;5268;49.346;9.522;2023-04-10T14:28:22;18.60;88.20
10441;DHT22;5268;49.346;9.522;2023-04-10T14:33:25;18.70;90.80
10441;DHT22;5268;49.346;9.522;2023-04-10T14:38:27;18.80;88.90
10441;DHT22;5268;49.346;9.522;2023-04-10T14:43:29;18.90;82.50
10441;DHT22;5268;49.346;9.522;2023-04-10T14:48:32;18.80;75.70
10441;DHT22;5268;49.346;9.522;2023-04-10T14:53:34;18.40;69.60
10441;DHT22;5268;49.346;9.522;2023-04-10T14:58:36;18.60;84.30
10441;DHT22;5268;49.346;9.522;2023-04-10T15:03:40;18.50;76.50
10441;DHT22;5268;49.346;9.522;2023-04-10T15:08:42;18.30;74.50
10441;DHT22;5268;49.346;9.522;2023-04-10T15:13:45;18.20;73.60
10441;DHT22;5268;49.346;9.522;2023-04-10T15:18:49;18.30;76.90
10441;DHT22;5268;49.346;9.522;2023-04-10T15:23:51;18.30;81.00
10441;DHT22;5268;49.346;9.522;2023-04-10T15:28:53;18.50;79.90
10441;DHT22;5268;49.346;9.522;2023-04-10T15:33:56;18.30;69.60
10441;DHT22;5268;49.346;9.522;2023-04-10T15:38:58;18.20;69.60
10441;DHT22;5268;49.346;9.522;2023-04-10T15:44:02;18.20;80.50
10441;DHT22;5268;49.346;9.522;2023-04-10T15:49:05;18.10;71.50
10441;DHT22;5268;49.346;9.522;2023-04-10T15:54:07;18.10;73.10
10441;DHT22;5268;49.346;9.522;2023-04-10T15:59:10;18.00;77.90
10441;DHT22;5268;49.346;9.522;2023-04-10T16:04:14;18.00;78.80
10441;DHT22;5268;49.346;9.522;2023-04-10T16:09:16;18.00;80.10
10441;DHT22;5268;49.346;9.522;2023-04-10T16:14:18;17.90;83.10
10441;DHT22;5268;49.346;9.522;2023-04-10T16:19:23;17.90;82.30
10441;DHT22;5268;49.346;9.522;2023-04-10T16:24:25;17.70;70.80
10441;DHT22;5268;49.346;9.522;2023-04-10T16:29:27;17.60;77.30
10441;DHT22;5268;49.346;9.522;2023-04-10T16:34:30;17.60;80.70
10441;DHT22;5268;49.346;9.522;2023-04-10T16:39:32;17.70;76.50
10441;DHT22;5268;49.346;9.522;2023-04-10T16:44:34;17.60;72.30
10441;DHT22;5268;49.346;9.522;2023-04-10T16:49:38;17.60;77.10
10441;DHT22;5268;49.346;9.522;2023-04-10T16:54:45;17.50;75.70
10441;DHT22;5268;49.346;9.522;2023-04-10T16:59:47;17.40;79.10
10441;DHT22;5268;49.346;9.522;2023-04-10T17:04:52;17.40;79.60
10441;DHT22;5268;49.346;9.522;2023-04-10T17:09:54;17.40;81.10
10441;DHT22;5268;49.346;9.522;2023-04-10T17:14:56;17.40;81.70
10441;DHT22;5268;49.346;9.522;2023-04-10T17:19:59;17.30;77.80
10441;DHT22;5268;49.346;9.522;2023-04-10T17:25:02;17.10;76.10
10441;DHT22;5268;49.346;9.522;2023-04-10T17:30:05;16.90;77.90
10441;DHT22;5268;49.346;9.522;2023-04-10T17:35:13;16.80;76.00
10441;DHT22;5268;49.346;9.522;2023-04-10T17:40:14;16.80;80.70
10441;DHT22;5268;49.346;9.522;2023-04-10T17:45:17;16.60;82.80
10441;DHT22;5268;49.346;9.522;2023-04-10T17:50:20;16.50;77.20
10441;DHT22;5268;49.346;9.522;2023-04-10T17:55:25;16.50;82.60
10441;DHT22;5268;49.346;9.522;2023-04-10T18:00:27;16.30;77.40
10441;DHT22;5268;49.346;9.522;2023-04-10T18:05:31;16.20;78.60
10441;DHT22;5268;49.346;9.522;2023-04-10T18:10:37;16.20;82.90
10441;DHT22;5268;49.346;9.522;2023-04-10T18:15:39;16.20;80.30
10441;DHT22;5268;49.346;9.522;2023-04-10T18:20:42;16.10;83.40
10441;DHT22;5268;49.346;9.522;2023-04-10T18:25:51;15.90;77.30
10441;DHT22;5268;49.346;9.522;2023-04-10T18:30:54;15.90;81.70
10441;DHT22;5268;49.346;9.522;2023-04-10T18:35:57;15.80;82.40
10441;DHT22;5268;49.346;9.522;2023-04-10T18:40:59;15.70;79.90
10441;DHT22;5268;49.346;9.522;2023-04-10T18:46:01;15.70;84.20
10441;DHT22;5268;49.346;9.522;2023-04-10T18:51:05;15.60;85.10
10441;DHT22;5268;49.346;9.522;2023-04-10T18:56:07;15.50;79.60
10441;DHT22;5268;49.346;9.522;2023-04-10T19:01:09;15.50;83.70
10441;DHT22;5268;49.346;9.522;2023-04-10T19:06:13;15.40;80.70
10441;DHT22;5268;49.346;9.522;2023-04-10T19:11:16;15.40;82.30
10441;DHT22;5268;49.346;9.522;2023-04-10T19:16:19;15.30;82.70
10441;DHT22;5268;49.346;9.522;2023-04-10T19:21:22;15.30;87.30
10441;DHT22;5268;49.346;9.522;2023-04-10T19:26:24;15.30;88.20
10441;DHT22;5268;49.346;9.522;2023-04-10T19:31:26;15.30;84.00
10441;DHT22;5268;49.346;9.522;2023-04-10T19:36:30;15.30;89.00
10441;DHT22;5268;49.346;9.522;2023-04-10T19:41:32;15.30;89.60
10441;DHT22;5268;49.346;9.522;2023-04-10T19:46:34;15.30;90.00
10441;DHT22;5268;49.346;9.522;2023-04-10T19:51:37;15.20;90.10
10441;DHT22;5268;49.346;9.522;2023-04-10T19:56:39;15.20;90.30
10441;DHT22;5268;49.346;9.522;2023-04-10T20:01:42;15.10;90.30
10441;DHT22;5268;49.346;9.522;2023-04-10T20:06:45;15.10;90.40
10441;DHT22;5268;49.346;9.522;2023-04-10T20:11:47;15.00;90.60
10441;DHT22;5268;49.346;9.522;2023-04-10T20:16:49;14.90;90.50
10441;DHT22;5268;49.346;9.522;2023-04-10T20:21:53;14.90;90.80
10441;DHT22;5268;49.346;9.522;2023-04-10T20:26:55;14.90;90.60
10441;DHT22;5268;49.346;9.522;2023-04-10T20:31:58;14.80;90.60
10441;DHT22;5268;49.346;9.522;2023-04-10T20:37:02;14.80;90.90
10441;DHT22;5268;49.346;9.522;2023-04-10T20:42:05;14.80;91.00
10441;DHT22;5268;49.346;9.522;2023-04-10T20:47:07;14.80;91.10
10441;DHT22;5268;49.346;9.522;2023-04-10T20:52:13;14.80;91.20
10441;DHT22;5268;49.346;9.522;2023-04-10T20:57:15;14.70;91.30
10441;DHT22;5268;49.346;9.522;2023-04-10T21:02:17;14.70;91.30
10441;DHT22;5268;49.346;9.522;2023-04-10T21:07:21;14.70;91.30
10441;DHT22;5268;49.346;9.522;2023-04-10T21:12:23;14.60;91.40
10441;DHT22;5268;49.346;9.522;2023-04-10T21:17:25;14.60;91.60
10441;DHT22;5268;49.346;9.522;2023-04-10T21:22:32;14.50;91.60
10441;DHT22;5268;49.346;9.522;2023-04-10T21:27:34;14.50;91.60
10441;DHT22;5268;49.346;9.522;2023-04-10T21:32:36;14.40;91.60
10441;DHT22;5268;49.346;9.522;2023-04-10T21:37:40;14.40;91.70
10441;DHT22;5268;49.346;9.522;2023-04-10T21:42:42;14.30;91.80
10441;DHT22;5268;49.346;9.522;2023-04-10T21:47:44;14.30;91.90
10441;DHT22;5268;49.346;9.522;2023-04-10T21:52:47;14.30;92.00
